Time;durP1;ratioP1;P1;durP2;ratioP2;P2;SDS_P1;SDS_P2;PMS_P1;PMS_P2;Temp;Humidity;BMP_temperature;BMP_pressure;BME280_temperature;BME280_humidity;BME280_pressure;Samples;Min_cycle;Max_cycle;Signal;HPM_P1;HPM_P2
2021/03/19 00:01:40;;;;;;;6.22;5.43;;;5.00;99.90;;;;;;5105801;28;20529;-52
2021/03/19 00:04:07;;;;;;;6.93;5.50;;;4.80;99.90;;;;;;5101502;28;20594;-53
2021/03/19 00:06:33;;;;;;;6.22;5.55;;;4.60;99.90;;;;;;5100996;27;20193;-51
2021/03/19 00:09:01;;;;;;;6.67;5.97;;;4.70;99.90;;;;;;5105748;27;20203;-52
2021/03/19 00:11:27;;;;;;;7.10;5.80;;;3.90;99.90;;;;;;5096065;27;20429;-51
2021/03/19 00:13:53;;;;;;;5.90;5.40;;;4.20;99.90;;;;;;5100612;28;20204;-52
2021/03/19 00:16:19;;;;;;;6.10;5.55;;;4.60;99.90;;;;;;5092134;28;20939;-53
2021/03/19 00:18:45;;;;;;;5.37;4.77;;;4.40;99.90;;;;;;5104576;27;20206;-52
2021/03/19 00:21:11;;;;;;;9.00;5.80;;;4.50;99.90;;;;;;5109002;27;20180;-51
2021/03/19 00:23:36;;;;;;;6.60;6.00;;;4.40;99.90;;;;;;5101019;27;20219;-52
2021/03/19 00:26:03;;;;;;;6.27;5.47;;;4.50;99.90;;;;;;5104572;27;20629;-53
2021/03/19 00:28:29;;;;;;;7.28;5.60;;;4.20;99.90;;;;;;5102840;28;20677;-52
2021/03/19 00:30:54;;;;;;;6.97;6.10;;;4.40;99.90;;;;;;5098335;27;20194;-52
2021/03/19 00:33:20;;;;;;;6.77;5.90;;;4.30;99.90;;;;;;5104058;27;20441;-52
2021/03/19 00:35:46;;;;;;;8.63;5.75;;;4.20;99.90;;;;;;5110622;27;20227;-52
2021/03/19 00:38:12;;;;;;;6.60;5.90;;;4.20;99.90;;;;;;5103061;27;20275;-52
2021/03/19 00:40:39;;;;;;;7.20;6.43;;;3.70;99.90;;;;;;5103981;27;20483;-52
2021/03/19 00:43:07;;;;;;;7.25;5.95;;;3.70;99.90;;;;;;5105960;28;20182;-52
2021/03/19 00:45:33;;;;;;;6.57;5.97;;;3.80;99.90;;;;;;5098280;27;20285;-52
2021/03/19 00:47:59;;;;;;;6.07;5.47;;;3.80;99.90;;;;;;5103631;28;20303;-52
2021/03/19 00:50:34;;;;;;;7.50;5.90;;;3.80;99.90;;;;;;5106125;27;20965;-51
2021/03/19 00:53:01;;;;;;;8.50;6.18;;;3.90;99.90;;;;;;5098307;28;20184;-52
2021/03/19 00:55:27;;;;;;;6.47;5.88;;;4.00;99.90;;;;;;5092307;27;20214;-52
2021/03/19 00:57:53;;;;;;;6.55;5.95;;;3.80;99.90;;;;;;5105220;27;20197;-51
2021/03/19 01:00:20;;;;;;;8.50;7.33;;;4.00;99.90;;;;;;5127437;27;20545;-53
2021/03/19 01:02:46;;;;;;;7.75;6.18;;;3.90;99.90;;;;;;5103565;27;20218;-52
2021/03/19 01:05:36;;;;;;;7.60;6.13;;;3.80;99.90;;;;;;5103600;27;20206;-52
2021/03/19 01:08:03;;;;;;;9.73;7.85;;;3.60;99.90;;;;;;5080099;28;20747;-51
2021/03/19 01:10:39;;;;;;;7.95;7.15;;;3.90;99.90;;;;;;5091598;28;20188;-53
2021/03/19 01:13:06;;;;;;;7.20;6.50;;;3.90;99.90;;;;;;5108518;28;20175;-52
2021/03/19 01:15:32;;;;;;;8.43;6.70;;;3.70;99.90;;;;;;5092232;28;20214;-52
2021/03/19 01:17:58;;;;;;;7.03;5.97;;;3.90;99.90;;;;;;5097645;28;20290;-51
2021/03/19 01:20:31;;;;;;;7.53;6.20;;;3.80;99.90;;;;;;5104046;28;20269;-51
2021/03/19 01:22:57;;;;;;;6.80;6.20;;;3.60;99.90;;;;;;5105052;28;20183;-52
2021/03/19 01:25:25;;;;;;;8.30;7.45;;;3.80;99.90;;;;;;5093208;28;20180;-51
2021/03/19 01:27:51;;;;;;;7.28;6.57;;;3.50;99.90;;;;;;5098011;28;20283;-52
2021/03/19 01:30:19;;;;;;;7.83;7.00;;;3.40;99.90;;;;;;5116816;28;20283;-52
2021/03/19 01:32:46;;;;;;;10.73;6.70;;;3.30;99.90;;;;;;5129187;28;20825;-53
2021/03/19 01:35:14;;;;;;;8.85;6.50;;;3.60;99.90;;;;;;5104283;28;20275;-52
2021/03/19 01:37:40;;;;;;;7.40;6.53;;;3.60;99.90;;;;;;5107458;28;20637;-51
2021/03/19 01:40:07;;;;;;;8.35;7.28;;;3.50;99.90;;;;;;5102601;28;20543;-52
2021/03/19 01:42:35;;;;;;;8.27;7.38;;;3.20;99.90;;;;;;5105251;28;20240;-51
2021/03/19 01:45:33;;;;;;;8.30;7.20;;;3.00;99.90;;;;;;5099032;28;20547;-51
2021/03/19 01:48:35;;;;;;;8.23;7.00;;;3.20;99.90;;;;;;5011236;28;20627;-52
2021/03/19 01:51:39;;;;;;;7.95;7.13;;;3.20;99.90;;;;;;5102306;28;20175;-52
2021/03/19 01:54:42;;;;;;;8.98;7.55;;;3.30;99.90;;;;;;5102500;28;20263;-52
2021/03/19 01:57:45;;;;;;;9.48;8.10;;;3.10;99.90;;;;;;5121564;28;20210;-52
2021/03/19 02:00:48;;;;;;;10.10;8.20;;;3.10;99.90;;;;;;5093150;28;20275;-51
2021/03/19 02:03:51;;;;;;;8.95;7.32;;;3.00;99.90;;;;;;5092429;28;20180;-52
2021/03/19 02:06:54;;;;;;;9.00;7.55;;;3.20;99.90;;;;;;5114471;28;20555;-51
2021/03/19 02:09:58;;;;;;;8.02;6.80;;;3.10;99.90;;;;;;5127566;28;20211;-52
2021/03/19 02:13:01;;;;;;;8.63;7.63;;;3.30;99.90;;;;;;5100415;28;20182;-52
2021/03/19 02:16:11;;;;;;;9.00;7.28;;;3.10;99.90;;;;;;5119815;28;20250;-51
2021/03/19 02:19:14;;;;;;;7.82;6.63;;;3.40;99.90;;;;;;5083490;28;20210;-52
2021/03/19 02:22:18;;;;;;;10.13;7.50;;;3.10;99.90;;;;;;5099916;27;20429;-51
2021/03/19 02:25:21;;;;;;;10.90;8.48;;;3.10;99.90;;;;;;5101795;27;20178;-52
2021/03/19 02:28:24;;;;;;;11.73;8.80;;;3.20;99.90;;;;;;5109275;27;20238;-51
2021/03/19 02:31:12;;;;;;;10.68;8.60;;;2.60;99.90;;;;;;5117010;27;20719;-52
2021/03/19 02:33:56;;;;;;;11.25;9.27;;;2.80;99.90;;;;;;5114077;27;20187;-52
2021/03/19 02:36:25;;;;;;;12.52;9.15;;;2.90;99.90;;;;;;5109274;28;20203;-52
2021/03/19 02:38:51;;;;;;;12.05;8.82;;;2.80;99.90;;;;;;5101063;28;20203;-51
2021/03/19 02:41:18;;;;;;;10.65;8.73;;;2.80;99.90;;;;;;5101824;28;20188;-52
2021/03/19 02:43:43;;;;;;;10.20;9.05;;;2.80;99.90;;;;;;5104468;27;20187;-51
2021/03/19 02:46:09;;;;;;;11.37;9.20;;;2.80;99.90;;;;;;5110078;27;20187;-52
2021/03/19 02:48:35;;;;;;;12.25;9.00;;;3.00;99.90;;;;;;5102188;27;20299;-51
2021/03/19 02:51:01;;;;;;;10.23;9.23;;;3.00;99.90;;;;;;5100297;28;20275;-51
2021/03/19 02:53:29;;;;;;;11.43;9.83;;;3.20;99.90;;;;;;5108703;27;20444;-52
2021/03/19 02:55:57;;;;;;;9.93;8.75;;;3.00;99.90;;;;;;5105399;27;20672;-51
2021/03/19 02:58:23;;;;;;;9.85;8.85;;;3.10;99.90;;;;;;5102179;27;20710;-53
2021/03/19 03:00:49;;;;;;;10.10;8.50;;;2.90;99.90;;;;;;5101751;27;20229;-52
2021/03/19 03:03:15;;;;;;;10.20;8.68;;;3.30;99.90;;;;;;5112090;27;20347;-52
2021/03/19 03:05:41;;;;;;;12.82;9.52;;;3.20;99.90;;;;;;5103058;27;20233;-53
2021/03/19 03:08:09;;;;;;;10.23;9.00;;;2.60;99.90;;;;;;5103491;28;20290;-52
2021/03/19 03:10:39;;;;;;;10.90;9.18;;;3.40;99.90;;;;;;5102997;28;20195;-51
2021/03/19 03:13:06;;;;;;;11.38;9.60;;;3.40;99.90;;;;;;5103827;28;20182;-51
2021/03/19 03:15:32;;;;;;;11.25;9.50;;;3.20;99.90;;;;;;5102630;27;20212;-52
2021/03/19 03:17:58;;;;;;;10.65;9.55;;;3.10;99.90;;;;;;5101500;27;20207;-51
2021/03/19 03:20:55;;;;;;;13.80;9.00;;;3.20;99.90;;;;;;5105691;27;20175;-52
2021/03/19 03:23:22;;;;;;;9.05;8.15;;;3.20;99.90;;;;;;5094936;27;20191;-52
2021/03/19 03:25:48;;;;;;;11.60;8.63;;;3.50;99.90;;;;;;5107525;28;20274;-52
2021/03/19 03:28:15;;;;;;;12.40;8.73;;;3.30;99.90;;;;;;5111962;27;20348;-51
2021/03/19 03:30:44;;;;;;;10.88;8.95;;;3.30;99.90;;;;;;5104470;27;20191;-52
2021/03/19 03:33:10;;;;;;;9.35;8.40;;;3.50;99.90;;;;;;5108262;27;20187;-52
2021/03/19 03:35:37;;;;;;;10.50;9.40;;;3.40;99.90;;;;;;5106454;27;20287;-51
2021/03/19 03:38:05;;;;;;;11.15;8.98;;;3.50;99.90;;;;;;5109401;27;20229;-51
2021/03/19 03:40:44;;;;;;;10.52;9.52;;;3.60;99.90;;;;;;5104168;27;20551;-52
2021/03/19 03:43:12;;;;;;;10.93;8.88;;;3.40;99.90;;;;;;5101229;27;20179;-52
2021/03/19 03:45:39;;;;;;;11.02;9.50;;;3.60;99.90;;;;;;5104281;27;20187;-52
2021/03/19 03:48:05;;;;;;;10.57;9.10;;;3.70;99.90;;;;;;5105165;27;20240;-52
2021/03/19 03:50:31;;;;;;;10.77;9.27;;;3.60;99.90;;;;;;5096338;27;20184;-52
2021/03/19 03:52:56;;;;;;;11.05;9.95;;;3.60;99.90;;;;;;5096033;27;20199;-52
2021/03/19 03:55:23;;;;;;;12.07;9.50;;;3.30;99.90;;;;;;5104492;28;20203;-51
2021/03/19 03:57:49;;;;;;;10.27;9.27;;;3.40;99.90;;;;;;5102841;27;20220;-51
2021/03/19 04:00:17;;;;;;;11.10;9.93;;;3.60;99.90;;;;;;5107955;27;20175;-51
2021/03/19 04:02:42;;;;;;;11.43;9.32;;;3.60;99.90;;;;;;5121237;27;20504;-51
2021/03/19 04:05:12;;;;;;;12.00;9.70;;;3.40;99.90;;;;;;5106151;27;20171;-51
2021/03/19 04:07:37;;;;;;;11.00;9.85;;;3.50;99.90;;;;;;5103919;27;20306;-52
2021/03/19 04:10:06;;;;;;;11.57;10.37;;;2.80;99.90;;;;;;5102594;28;20696;-51
2021/03/19 04:12:33;;;;;;;14.80;9.85;;;3.30;99.90;;;;;;5106777;27;20621;-51
2021/03/19 04:14:58;;;;;;;11.40;9.40;;;3.20;99.90;;;;;;5104457;28;20305;-51
2021/03/19 04:17:30;;;;;;;11.30;9.67;;;3.30;99.90;;;;;;5102567;27;20573;-50
2021/03/19 04:19:57;;;;;;;10.20;9.15;;;3.50;99.90;;;;;;5103037;27;20197;-52
2021/03/19 04:22:23;;;;;;;10.75;9.43;;;3.40;99.90;;;;;;5109355;27;20601;-51
2021/03/19 04:24:48;;;;;;;11.30;9.57;;;3.50;99.90;;;;;;5105178;28;20184;-51
2021/03/19 04:27:20;;;;;;;12.33;11.10;;;3.40;99.90;;;;;;5092760;28;20264;-51
2021/03/19 04:29:47;;;;;;;12.15;9.90;;;3.40;99.90;;;;;;5094209;28;20179;-52
2021/03/19 04:32:14;;;;;;;11.35;10.15;;;3.50;99.90;;;;;;5104375;27;20213;-51
2021/03/19 04:34:39;;;;;;;11.70;10.50;;;3.20;99.90;;;;;;5101240;27;20187;-51
2021/03/19 04:37:06;;;;;;;11.57;10.37;;;3.20;99.90;;;;;;5098613;28;20294;-50
2021/03/19 04:39:33;;;;;;;13.15;10.82;;;3.40;99.90;;;;;;5106718;27;20631;-50
2021/03/19 04:42:01;;;;;;;12.10;10.30;;;3.30;99.90;;;;;;5106833;27;20179;-51
2021/03/19 04:44:30;;;;;;;12.40;10.50;;;3.50;99.90;;;;;;5097041;27;20186;-51
2021/03/19 04:46:56;;;;;;;14.48;10.73;;;3.30;99.90;;;;;;5101058;28;20194;-50
2021/03/19 04:49:23;;;;;;;11.37;10.17;;;3.00;99.90;;;;;;5095749;28;20566;-51
2021/03/19 04:51:49;;;;;;;12.40;10.57;;;3.20;99.90;;;;;;5107796;27;20320;-51
2021/03/19 04:54:15;;;;;;;12.03;10.70;;;3.30;99.90;;;;;;5108012;27;20270;-51
2021/03/19 04:56:41;;;;;;;11.98;10.27;;;3.50;99.90;;;;;;5094396;27;20206;-51
2021/03/19 04:59:07;;;;;;;11.37;9.80;;;3.30;99.90;;;;;;5109087;27;20367;-51
2021/03/19 05:01:45;;;;;;;12.30;10.48;;;3.00;99.90;;;;;;5107660;27;20194;-51
2021/03/19 05:04:10;;;;;;;15.55;10.20;;;3.30;99.90;;;;;;5106710;28;20175;-51
2021/03/19 05:06:36;;;;;;;12.00;10.03;;;3.50;99.90;;;;;;5097760;27;20195;-51
2021/03/19 05:09:01;;;;;;;12.37;11.13;;;3.10;99.90;;;;;;5103956;27;20202;-51
2021/03/19 05:11:27;;;;;;;12.30;10.80;;;3.10;99.90;;;;;;5100735;28;20669;-51
2021/03/19 05:13:54;;;;;;;15.80;10.07;;;3.00;99.90;;;;;;5096904;28;20176;-51
2021/03/19 05:16:20;;;;;;;11.38;9.98;;;3.40;99.90;;;;;;5107696;28;20266;-51
2021/03/19 05:18:45;;;;;;;11.80;9.87;;;3.50;99.90;;;;;;5093817;28;20313;-51
2021/03/19 05:21:11;;;;;;;11.37;10.20;;;3.30;99.90;;;;;;5099901;28;20564;-51
2021/03/19 05:23:37;;;;;;;13.33;11.30;;;3.60;99.90;;;;;;5107361;28;20178;-51
2021/03/19 05:26:05;;;;;;;11.83;10.63;;;3.50;99.90;;;;;;5126913;28;20278;-51
2021/03/19 05:28:30;;;;;;;12.63;11.27;;;3.40;99.90;;;;;;5110562;28;20203;-51
2021/03/19 05:30:57;;;;;;;18.10;11.67;;;3.30;99.90;;;;;;5097573;28;20553;-51
2021/03/19 05:33:26;;;;;;;12.23;10.93;;;3.30;99.90;;;;;;5099822;28;20194;-50
2021/03/19 05:35:53;;;;;;;15.15;11.05;;;3.60;99.90;;;;;;5104730;28;20635;-50
2021/03/19 05:38:19;;;;;;;13.13;11.73;;;3.60;99.90;;;;;;5093234;28;20207;-51
2021/03/19 05:40:52;;;;;;;12.98;11.10;;;3.10;99.90;;;;;;5100241;28;20198;-51
2021/03/19 05:43:20;;;;;;;13.63;12.10;;;3.20;99.90;;;;;;5122406;28;20270;-51
2021/03/19 05:45:50;;;;;;;12.20;10.70;;;3.60;99.90;;;;;;5095769;28;20548;-51
2021/03/19 05:48:16;;;;;;;11.65;10.45;;;3.20;99.90;;;;;;5095233;28;20213;-51
2021/03/19 05:50:41;;;;;;;12.60;11.30;;;3.70;99.90;;;;;;5107356;28;20266;-50
2021/03/19 05:53:13;;;;;;;15.97;12.40;;;3.60;99.90;;;;;;5094320;28;20194;-51
2021/03/19 05:55:40;;;;;;;13.65;11.40;;;3.50;99.90;;;;;;5094367;28;20425;-52
2021/03/19 05:58:11;;;;;;;13.63;11.70;;;3.80;99.90;;;;;;5105308;28;20302;-51
2021/03/19 06:00:37;;;;;;;14.35;10.60;;;3.90;99.90;;;;;;5105463;27;20190;-51
2021/03/19 06:03:03;;;;;;;11.93;10.80;;;4.30;99.90;;;;;;5107870;27;20184;-52
2021/03/19 06:05:30;;;;;;;14.13;11.93;;;3.80;99.90;;;;;;5098379;27;20774;-52
2021/03/19 06:08:05;;;;;;;12.98;10.85;;;4.00;99.90;;;;;;5106696;27;21236;-54
2021/03/19 06:10:40;;;;;;;12.32;10.35;;;4.10;99.90;;;;;;5105296;27;20194;-53
2021/03/19 06:13:41;;;;;;;12.98;10.43;;;4.30;99.90;;;;;;5107898;27;20269;-53
2021/03/19 06:16:28;;;;;;;13.95;10.48;;;4.50;99.90;;;;;;5103191;27;20284;-52
2021/03/19 06:18:55;;;;;;;12.85;9.98;;;4.40;99.90;;;;;;5129843;27;20298;-52
2021/03/19 06:21:24;;;;;;;12.80;11.02;;;4.60;99.90;;;;;;5122821;27;20193;-51
2021/03/19 06:24:20;;;;;;;13.55;10.57;;;4.50;99.90;;;;;;5103892;28;20184;-52
2021/03/19 06:26:46;;;;;;;11.70;10.50;;;4.60;99.90;;;;;;5088594;27;20197;-53
2021/03/19 06:29:42;;;;;;;14.43;11.23;;;4.80;99.90;;;;;;5123756;27;20202;-52
2021/03/19 06:32:19;;;;;;;12.98;11.25;;;4.60;99.90;;;;;;5125313;27;20236;-52
2021/03/19 06:34:57;;;;;;;12.30;11.00;;;4.20;99.90;;;;;;5104052;27;20188;-52
2021/03/19 06:37:32;;;;;;;12.63;10.90;;;4.40;99.90;;;;;;5107094;27;20199;-51
2021/03/19 06:40:00;;;;;;;14.00;11.43;;;4.60;99.90;;;;;;5097438;27;20233;-53
2021/03/19 06:42:26;;;;;;;16.23;12.57;;;4.50;99.90;;;;;;5108481;27;20667;-52
2021/03/19 06:45:14;;;;;;;15.27;13.67;;;4.30;99.90;;;;;;5100680;28;20227;-53
2021/03/19 06:47:43;;;;;;;16.17;12.77;;;4.10;99.90;;;;;;5123483;27;20212;-51
2021/03/19 06:50:34;;;;;;;14.30;12.57;;;4.00;99.90;;;;;;5101703;28;20275;-52
2021/03/19 06:53:21;;;;;;;16.52;13.77;;;3.80;99.90;;;;;;5099913;27;20195;-54
2021/03/19 06:55:54;;;;;;;15.82;12.93;;;4.00;99.90;;;;;;5110595;27;20211;-53
2021/03/19 06:58:55;;;;;;;17.23;13.90;;;4.10;99.90;;;;;;5112101;27;20207;-52
2021/03/19 07:01:24;;;;;;;18.02;14.45;;;4.00;99.90;;;;;;5029373;28;20474;-53
2021/03/19 07:04:08;;;;;;;19.05;14.98;;;3.50;99.90;;;;;;5108364;27;20202;-54
2021/03/19 07:06:49;;;;;;;18.85;13.55;;;3.90;99.90;;;;;;5095789;28;20550;-54
2021/03/19 07:09:27;;;;;;;17.05;15.23;;;4.30;99.90;;;;;;5106590;27;20207;-54
2021/03/19 07:12:27;;;;;;;17.63;15.40;;;4.10;99.90;;;;;;5101245;27;20222;-54
2021/03/19 07:15:02;;;;;;;17.05;13.68;;;4.00;99.90;;;;;;5099231;28;20474;-54
2021/03/19 07:18:08;;;;;;;19.00;14.20;;;4.20;99.90;;;;;;5098573;27;20606;-53
2021/03/19 07:20:39;;;;;;;20.15;13.32;;;3.80;99.90;;;;;;5085043;28;20255;-55
2021/03/19 07:23:19;;;;;;;17.45;14.50;;;4.50;99.90;;;;;;5091484;28;20648;-55
2021/03/19 07:25:52;;;;;;;16.25;13.70;;;4.10;99.90;;;;;;5113248;27;20226;-54
2021/03/19 07:28:39;;;;;;;17.48;14.50;;;4.40;99.90;;;;;;5108506;27;20664;-53
2021/03/19 07:31:17;;;;;;;18.30;14.80;;;4.40;99.90;;;;;;5100954;27;20949;-53
2021/03/19 07:33:51;;;;;;;22.63;15.60;;;4.30;99.90;;;;;;5096909;27;20274;-54
2021/03/19 07:36:35;;;;;;;18.27;14.38;;;4.30;99.90;;;;;;5097517;27;20572;-52
2021/03/19 07:39:31;;;;;;;21.92;16.02;;;4.50;99.90;;;;;;5103225;27;20206;-52
2021/03/19 07:42:35;;;;;;;15.32;13.55;;;4.40;99.90;;;;;;5108067;28;20207;-52
2021/03/19 07:45:06;;;;;;;18.10;14.20;;;4.50;99.90;;;;;;5105597;27;20436;-55
2021/03/19 07:47:50;;;;;;;18.77;14.93;;;4.30;99.90;;;;;;5105854;27;20207;-51
2021/03/19 07:50:31;;;;;;;21.02;15.48;;;4.60;99.90;;;;;;5099980;27;20626;-51
2021/03/19 07:53:24;;;;;;;21.00;17.95;;;4.40;99.90;;;;;;5102104;27;20428;-52
2021/03/19 07:56:28;;;;;;;19.75;16.40;;;4.60;99.90;;;;;;5103837;27;20235;-51
2021/03/19 07:59:01;;;;;;;20.77;14.55;;;5.10;99.90;;;;;;5100931;27;20200;-52
2021/03/19 08:01:37;;;;;;;16.90;13.18;;;4.50;99.90;;;;;;5104739;27;20633;-54
2021/03/19 08:04:21;;;;;;;18.13;13.35;;;5.00;99.90;;;;;;5115100;27;20206;-55
2021/03/19 08:06:52;;;;;;;17.48;13.63;;;5.00;99.90;;;;;;5109589;28;20230;-52
2021/03/19 08:09:44;;;;;;;15.88;12.63;;;5.00;99.90;;;;;;5093352;28;20208;-51
2021/03/19 08:12:37;;;;;;;15.90;12.10;;;5.10;99.90;;;;;;5105814;28;20204;-54
2021/03/19 08:15:25;;;;;;;13.25;11.82;;;5.00;99.90;;;;;;5113970;27;20716;-53
2021/03/19 08:18:15;;;;;;;13.68;11.25;;;4.80;99.90;;;;;;5093652;28;20204;-53
2021/03/19 08:21:14;;;;;;;14.55;10.60;;;5.20;99.90;;;;;;5064313;27;20599;-52
2021/03/19 08:23:58;;;;;;;10.82;9.65;;;5.20;99.90;;;;;;5107430;27;20597;-53
2021/03/19 08:26:35;;;;;;;14.77;10.05;;;5.20;99.90;;;;;;5107260;27;20568;-54
2021/03/19 08:29:30;;;;;;;13.90;10.88;;;4.90;99.90;;;;;;5093255;27;20207;-53
2021/03/19 08:32:13;;;;;;;14.43;11.57;;;5.00;99.90;;;;;;5105717;27;20922;-54
2021/03/19 08:34:54;;;;;;;11.95;10.38;;;5.20;99.90;;;;;;5112191;27;20203;-55
2021/03/19 08:37:35;;;;;;;12.48;9.93;;;5.30;99.90;;;;;;5110720;27;20320;-53
2021/03/19 08:40:02;;;;;;;11.95;9.90;;;5.40;99.90;;;;;;5095182;27;20186;-53
2021/03/19 08:42:38;;;;;;;13.60;10.15;;;5.30;99.90;;;;;;5107699;27;20184;-53
2021/03/19 08:45:07;;;;;;;11.68;10.30;;;5.10;99.90;;;;;;5104176;27;20184;-53
2021/03/19 08:47:43;;;;;;;13.98;10.52;;;5.10;99.90;;;;;;5100024;28;20209;-53
2021/03/19 08:50:27;;;;;;;12.70;10.80;;;5.20;99.90;;;;;;5106893;27;20253;-54
2021/03/19 08:53:04;;;;;;;12.05;10.75;;;5.40;99.90;;;;;;5099074;27;20196;-55
2021/03/19 08:55:34;;;;;;;13.43;11.45;;;5.40;99.90;;;;;;5104711;27;20204;-55
2021/03/19 08:58:25;;;;;;;13.30;11.43;;;5.20;99.90;;;;;;5101322;28;22051;-55
2021/03/19 09:00:56;;;;;;;12.25;11.00;;;5.30;99.90;;;;;;5116409;27;20227;-53
2021/03/19 09:03:37;;;;;;;14.98;10.20;;;5.30;99.90;;;;;;5100226;27;20196;-52
2021/03/19 09:06:06;;;;;;;14.57;10.30;;;5.20;99.90;;;;;;5106372;27;20199;-54
2021/03/19 09:08:46;;;;;;;13.73;10.68;;;5.20;99.90;;;;;;5104006;28;20774;-52
2021/03/19 09:11:38;;;;;;;16.35;11.80;;;5.40;99.90;;;;;;5099750;28;20599;-52
2021/03/19 09:14:04;;;;;;;19.77;12.15;;;4.90;99.90;;;;;;5076924;28;20694;-53
2021/03/19 09:16:48;;;;;;;17.83;12.30;;;4.80;99.90;;;;;;5095101;28;20228;-52
2021/03/19 09:19:32;;;;;;;15.10;11.55;;;5.00;99.90;;;;;;5103301;28;20287;-54
2021/03/19 09:22:41;;;;;;;17.83;12.20;;;4.80;99.90;;;;;;5101983;28;20580;-52
2021/03/19 09:25:13;;;;;;;14.02;11.30;;;4.80;99.90;;;;;;5065942;28;20683;-54
2021/03/19 09:27:39;;;;;;;14.48;10.82;;;5.30;99.90;;;;;;5098235;28;20204;-52
2021/03/19 09:30:15;;;;;;;14.23;12.10;;;5.20;99.90;;;;;;5094750;28;20198;-52
2021/03/19 09:32:46;;;;;;;12.90;9.70;;;5.20;99.90;;;;;;5106462;27;20185;-52
2021/03/19 09:35:47;;;;;;;11.60;9.02;;;5.40;99.90;;;;;;5105541;27;20177;-51
2021/03/19 09:38:33;;;;;;;13.75;10.10;;;5.40;99.90;;;;;;5044482;27;20579;-51
2021/03/19 09:41:04;;;;;;;10.90;8.60;;;5.80;99.90;;;;;;5085253;27;20291;-54
2021/03/19 09:43:36;;;;;;;10.93;8.73;;;5.70;99.90;;;;;;5096177;27;20272;-53
2021/03/19 09:46:13;;;;;;;11.43;9.48;;;5.60;99.90;;;;;;5097876;27;20299;-52
2021/03/19 09:48:39;;;;;;;11.30;9.55;;;5.80;99.90;;;;;;5105842;27;20222;-52
2021/03/19 09:51:14;;;;;;;12.80;9.10;;;6.00;99.90;;;;;;5096655;27;20661;-53
2021/03/19 09:53:39;;;;;;;10.02;8.90;;;5.70;99.90;;;;;;5100432;27;20189;-53
2021/03/19 09:56:18;;;;;;;10.30;8.80;;;6.00;99.90;;;;;;5114742;27;20222;-50
2021/03/19 09:58:51;;;;;;;11.73;9.30;;;5.90;99.90;;;;;;5103151;27;20416;-50
2021/03/19 10:01:23;;;;;;;12.85;9.70;;;6.00;99.90;;;;;;5095134;28;20187;-55
2021/03/19 10:03:59;;;;;;;11.60;10.38;;;6.20;99.90;;;;;;5102403;28;20182;-49
2021/03/19 10:06:33;;;;;;;12.40;9.05;;;6.40;99.90;;;;;;5103899;27;20920;-49
2021/03/19 10:09:07;;;;;;;12.13;10.80;;;6.50;99.90;;;;;;5107945;28;20335;-49
2021/03/19 10:11:33;;;;;;;11.07;9.07;;;6.50;99.90;;;;;;5094960;27;20807;-50
2021/03/19 10:14:14;;;;;;;9.45;8.45;;;6.80;99.90;;;;;;5111695;27;20512;-49
2021/03/19 10:16:39;;;;;;;9.63;8.63;;;6.70;99.90;;;;;;5104429;27;20211;-50
2021/03/19 10:19:14;;;;;;;9.80;8.10;;;6.90;99.90;;;;;;5107777;27;20268;-52
2021/03/19 10:21:46;;;;;;;9.82;8.82;;;6.90;99.90;;;;;;5103532;27;20436;-56
2021/03/19 10:24:13;;;;;;;11.27;8.60;;;7.10;99.70;;;;;;5101961;28;20171;-55
2021/03/19 10:26:48;;;;;;;8.20;7.00;;;7.40;99.40;;;;;;5107372;27;20289;-53
2021/03/19 10:29:18;;;;;;;8.20;7.13;;;7.40;97.60;;;;;;5123281;27;20207;-53
2021/03/19 10:31:51;;;;;;;8.02;7.22;;;6.60;97.10;;;;;;5108731;27;20215;-51
2021/03/19 10:34:34;;;;;;;9.82;8.40;;;7.00;98.50;;;;;;5111870;27;20183;-52
2021/03/19 10:37:25;;;;;;;10.05;8.73;;;7.20;98.10;;;;;;5105952;27;20205;-51
2021/03/19 10:39:53;;;;;;;9.82;8.68;;;6.80;99.10;;;;;;5113214;27;20175;-53
2021/03/19 10:42:31;;;;;;;10.63;8.82;;;6.20;99.90;;;;;;5107618;27;20201;-52
2021/03/19 10:45:09;;;;;;;10.40;8.35;;;6.10;99.90;;;;;;5100203;28;20179;-53
2021/03/19 10:47:47;;;;;;;9.38;8.40;;;5.40;99.90;;;;;;5112040;27;20217;-57
2021/03/19 10:50:22;;;;;;;12.35;10.60;;;5.40;99.90;;;;;;5099749;27;20442;-51
2021/03/19 10:52:59;;;;;;;9.38;8.38;;;5.90;99.90;;;;;;5103662;27;20213;-52
2021/03/19 10:55:31;;;;;;;10.00;8.23;;;5.90;99.90;;;;;;5102747;27;20182;-52
2021/03/19 10:58:25;;;;;;;10.02;7.25;;;5.90;99.90;;;;;;5105892;27;20195;-53
2021/03/19 11:00:52;;;;;;;10.55;8.40;;;6.30;99.90;;;;;;5095851;27;20176;-53
2021/03/19 11:03:47;;;;;;;10.82;8.30;;;6.30;99.90;;;;;;5094156;28;20181;-52
2021/03/19 11:06:34;;;;;;;7.72;7.00;;;6.40;99.90;;;;;;5110842;27;20182;-51
2021/03/19 11:09:20;;;;;;;9.73;8.13;;;6.50;99.90;;;;;;5108069;27;20212;-51
2021/03/19 11:11:55;;;;;;;7.97;7.18;;;6.40;99.90;;;;;;5098541;27;20560;-51
2021/03/19 11:14:25;;;;;;;6.03;5.43;;;6.40;99.90;;;;;;5109022;27;20715;-51
2021/03/19 11:16:53;;;;;;;5.82;5.13;;;6.20;99.90;;;;;;5096824;28;20611;-51
2021/03/19 11:19:20;;;;;;;4.65;4.15;;;6.30;99.90;;;;;;5093457;27;20667;-52
2021/03/19 11:21:56;;;;;;;5.15;4.65;;;6.30;99.90;;;;;;5125318;27;20181;-51
2021/03/19 11:24:31;;;;;;;4.47;4.07;;;6.40;99.90;;;;;;5119799;27;20183;-50
2021/03/19 11:27:19;;;;;;;4.63;4.22;;;6.40;99.90;;;;;;5113259;27;20215;-51
2021/03/19 11:29:46;;;;;;;3.75;3.45;;;6.10;99.90;;;;;;5124805;27;20190;-54
2021/03/19 11:32:14;;;;;;;5.57;4.75;;;6.10;99.90;;;;;;5098647;28;20186;-52
2021/03/19 11:34:42;;;;;;;5.28;4.80;;;5.80;99.90;;;;;;5104310;27;20187;-52
2021/03/19 11:37:23;;;;;;;5.55;4.40;;;5.80;99.90;;;;;;5117554;27;20212;-53
2021/03/19 11:39:59;;;;;;;5.53;4.78;;;5.70;99.90;;;;;;5099153;27;20186;-53
2021/03/19 11:42:25;;;;;;;5.10;4.40;;;5.80;99.90;;;;;;5099250;27;20604;-53
2021/03/19 11:44:54;;;;;;;4.80;4.30;;;5.80;99.90;;;;;;5100482;27;20182;-52
2021/03/19 11:47:36;;;;;;;5.22;4.63;;;5.80;99.90;;;;;;5098226;27;20189;-53
2021/03/19 11:50:20;;;;;;;5.10;4.47;;;5.80;99.90;;;;;;5100687;27;20207;-53
2021/03/19 11:52:48;;;;;;;5.70;5.20;;;6.00;99.90;;;;;;5097459;27;20421;-53
2021/03/19 11:55:18;;;;;;;6.30;5.20;;;6.10;99.90;;;;;;5098650;28;20308;-54
2021/03/19 11:57:43;;;;;;;6.00;5.40;;;6.10;99.90;;;;;;5122552;27;20696;-53
2021/03/19 12:00:10;;;;;;;5.57;4.97;;;6.30;99.90;;;;;;5103833;27;20621;-54
2021/03/19 12:02:42;;;;;;;5.63;5.13;;;6.00;99.60;;;;;;5097398;27;20181;-53
2021/03/19 12:05:10;;;;;;;5.13;4.55;;;6.20;99.80;;;;;;5102483;27;20208;-53
2021/03/19 12:07:39;;;;;;;5.70;5.03;;;5.90;99.90;;;;;;5120950;27;20229;-51
2021/03/19 12:10:07;;;;;;;6.35;5.60;;;5.80;99.90;;;;;;5098653;27;20687;-54
2021/03/19 12:12:33;;;;;;;8.05;5.72;;;5.90;99.90;;;;;;5103392;27;20292;-53
2021/03/19 12:15:00;;;;;;;6.60;5.07;;;5.70;99.90;;;;;;5096483;27;20649;-52
2021/03/19 12:17:26;;;;;;;6.65;5.70;;;5.90;99.90;;;;;;5109705;27;20547;-53
2021/03/19 12:19:52;;;;;;;7.15;6.45;;;5.90;99.90;;;;;;5105659;27;20181;-53
2021/03/19 12:22:20;;;;;;;6.93;6.23;;;5.90;99.90;;;;;;5125582;27;20182;-55
2021/03/19 12:24:45;;;;;;;8.55;5.88;;;5.80;99.70;;;;;;5098462;27;20433;-54
2021/03/19 12:27:14;;;;;;;7.00;6.30;;;5.90;99.80;;;;;;5110923;27;20245;-54
2021/03/19 12:29:40;;;;;;;6.57;5.88;;;5.80;99.50;;;;;;5105562;27;20186;-52
2021/03/19 12:32:07;;;;;;;8.40;6.60;;;5.60;99.70;;;;;;5108200;27;20195;-54
2021/03/19 12:34:33;;;;;;;9.07;6.60;;;5.90;99.60;;;;;;5110040;27;20449;-54
2021/03/19 12:36:59;;;;;;;7.05;6.35;;;5.50;99.10;;;;;;5106494;27;20208;-52
2021/03/19 12:39:26;;;;;;;8.80;7.40;;;5.60;99.80;;;;;;5110340;27;20207;-51
2021/03/19 12:41:51;;;;;;;8.85;7.22;;;5.50;99.90;;;;;;5094226;27;20519;-54
2021/03/19 12:44:17;;;;;;;10.10;8.20;;;5.50;99.90;;;;;;5123458;27;20281;-54
2021/03/19 12:46:44;;;;;;;7.90;7.10;;;5.70;99.90;;;;;;5100695;27;20426;-52
2021/03/19 12:49:10;;;;;;;9.82;7.60;;;5.60;99.90;;;;;;5101971;27;20220;-53
2021/03/19 12:51:36;;;;;;;12.20;8.93;;;5.60;99.90;;;;;;5114213;27;20244;-53
2021/03/19 12:54:02;;;;;;;11.45;9.50;;;5.30;99.90;;;;;;5092630;27;20435;-54
2021/03/19 12:56:28;;;;;;;12.43;9.15;;;5.70;99.90;;;;;;5106488;28;20200;-51
2021/03/19 12:58:54;;;;;;;11.00;9.20;;;5.50;99.90;;;;;;5097131;27;20205;-53
2021/03/19 13:01:19;;;;;;;12.70;9.70;;;5.80;99.90;;;;;;5100455;27;20516;-51
2021/03/19 13:03:47;;;;;;;14.30;11.37;;;5.40;99.90;;;;;;5101317;28;20178;-51
2021/03/19 13:06:12;;;;;;;14.32;11.07;;;5.30;99.90;;;;;;5106257;27;20766;-53
2021/03/19 13:08:38;;;;;;;13.30;10.43;;;5.40;99.90;;;;;;5098900;27;21599;-52
2021/03/19 13:11:04;;;;;;;15.20;10.93;;;5.00;99.90;;;;;;5096847;28;20441;-51
2021/03/19 13:13:30;;;;;;;14.60;11.17;;;5.30;99.90;;;;;;5110357;28;20618;-53
2021/03/19 13:15:56;;;;;;;14.85;10.38;;;5.00;99.90;;;;;;5125872;27;20213;-53
2021/03/19 13:18:22;;;;;;;15.90;12.48;;;5.30;99.90;;;;;;5108104;28;20310;-53
2021/03/19 13:20:48;;;;;;;15.13;11.20;;;5.20;99.90;;;;;;5098967;28;20272;-52